Time;durP1;ratioP1;P1;durP2;ratioP2;P2;SDS_P1;SDS_P2;PMS_P1;PMS_P2;Temp;Humidity;BMP_temperature;BMP_pressure;BME280_temperature;BME280_humidity;BME280_pressure;Samples;Min_cycle;Max_cycle;Signal;HPM_P1;HPM_P2
2023/09/23 00:00:51;;;;;;;3.30;1.70;;;12.40;99.90;;;;;;5071417;28;20639;-73
2023/09/23 00:03:17;;;;;;;2.00;1.80;;;12.30;99.90;;;;;;5071980;28;20413;-73
2023/09/23 00:05:43;;;;;;;2.00;1.80;;;12.30;99.90;;;;;;5071583;28;20197;-73
2023/09/23 00:08:10;;;;;;;2.20;1.60;;;12.20;99.90;;;;;;5072010;28;20241;-72
2023/09/23 00:10:35;;;;;;;3.30;2.60;;;12.20;99.90;;;;;;5071754;28;20422;-73
2023/09/23 00:13:01;;;;;;;1.97;1.73;;;12.20;99.90;;;;;;5072113;28;20396;-73
2023/09/23 00:15:27;;;;;;;2.80;2.10;;;12.30;99.90;;;;;;5075132;28;20733;-73
2023/09/23 00:17:55;;;;;;;1.60;1.50;;;12.30;99.90;;;;;;5077956;28;20408;-73
2023/09/23 00:20:22;;;;;;;3.83;2.17;;;12.40;99.90;;;;;;5054126;28;20637;-73
2023/09/23 00:22:48;;;;;;;2.37;1.70;;;12.40;99.90;;;;;;5072064;28;20430;-73
2023/09/23 00:25:18;;;;;;;4.00;3.17;;;12.50;99.90;;;;;;5071669;28;20478;-73
2023/09/23 00:27:48;;;;;;;4.97;1.93;;;12.50;99.90;;;;;;5070715;28;20419;-73
2023/09/23 00:30:15;;;;;;;3.53;2.17;;;12.60;99.90;;;;;;5071980;28;20452;-74
2023/09/23 00:32:41;;;;;;;6.03;2.40;;;12.60;99.90;;;;;;5071973;28;20408;-73
2023/09/23 00:35:10;;;;;;;2.50;2.00;;;12.60;99.90;;;;;;5071464;28;20839;-73
2023/09/23 00:37:36;;;;;;;1.73;1.60;;;12.70;99.90;;;;;;5071954;28;20441;-73
2023/09/23 00:40:03;;;;;;;3.63;2.10;;;12.80;99.90;;;;;;5070573;28;20500;-73
2023/09/23 00:42:28;;;;;;;3.20;2.50;;;12.90;99.90;;;;;;5071838;28;20436;-73
2023/09/23 00:44:54;;;;;;;3.13;2.17;;;12.90;99.90;;;;;;5076136;28;20889;-74
2023/09/23 00:47:20;;;;;;;2.60;2.40;;;13.00;99.90;;;;;;5079495;28;20184;-73
2023/09/23 00:49:46;;;;;;;4.47;2.70;;;12.90;99.90;;;;;;5071372;28;20194;-73
2023/09/23 00:52:16;;;;;;;4.40;2.10;;;12.80;99.90;;;;;;5071516;28;20154;-73
2023/09/23 00:54:49;;;;;;;2.80;2.47;;;12.70;99.90;;;;;;5070275;28;20483;-73
2023/09/23 00:57:17;;;;;;;4.30;2.23;;;12.60;99.90;;;;;;5071795;28;20412;-74
2023/09/23 00:59:43;;;;;;;3.83;2.60;;;12.50;99.90;;;;;;5071787;28;20462;-74
2023/09/23 01:02:09;;;;;;;1.93;1.73;;;12.50;99.90;;;;;;5071242;28;20886;-74
2023/09/23 01:04:34;;;;;;;4.77;1.70;;;12.50;99.90;;;;;;5071336;28;20943;-74
2023/09/23 01:07:02;;;;;;;2.80;1.93;;;12.40;99.90;;;;;;5071344;28;20408;-74
2023/09/23 01:09:29;;;;;;;4.10;1.97;;;12.30;99.90;;;;;;5071421;28;20227;-74
2023/09/23 01:11:56;;;;;;;2.70;1.43;;;12.30;99.90;;;;;;5071709;28;20881;-74
2023/09/23 01:14:22;;;;;;;2.10;1.87;;;12.20;99.90;;;;;;5074337;28;20469;-73
2023/09/23 01:16:52;;;;;;;2.30;1.80;;;12.10;99.90;;;;;;5081478;28;20417;-74
2023/09/23 01:19:25;;;;;;;3.70;2.50;;;12.10;99.90;;;;;;5077475;28;20754;-74
2023/09/23 01:21:50;;;;;;;3.03;2.67;;;12.00;99.90;;;;;;5055440;28;20404;-74
2023/09/23 01:24:17;;;;;;;2.37;2.10;;;11.90;99.90;;;;;;5055186;28;20421;-74
2023/09/23 01:26:48;;;;;;;5.10;2.67;;;11.90;99.90;;;;;;5055168;28;20159;-74
2023/09/23 01:29:13;;;;;;;4.00;2.73;;;11.80;99.90;;;;;;5055291;28;20832;-74
2023/09/23 01:31:39;;;;;;;2.50;2.30;;;11.80;99.90;;;;;;5055054;28;20401;-74
2023/09/23 01:34:04;;;;;;;2.97;2.57;;;11.80;99.90;;;;;;5054793;28;20594;-74
2023/09/23 01:36:31;;;;;;;2.60;2.20;;;11.80;99.90;;;;;;5055025;28;20246;-74
2023/09/23 01:38:57;;;;;;;2.90;2.03;;;11.70;99.90;;;;;;5054983;28;20580;-74
2023/09/23 01:41:22;;;;;;;4.00;2.60;;;11.70;99.90;;;;;;5055070;28;20401;-74
2023/09/23 01:43:49;;;;;;;2.57;2.17;;;11.60;99.90;;;;;;5054934;28;20246;-74
2023/09/23 01:46:14;;;;;;;3.37;2.03;;;11.50;99.90;;;;;;5054688;28;20661;-74
2023/09/23 01:48:40;;;;;;;3.20;1.77;;;11.40;99.90;;;;;;5054755;28;20440;-74
2023/09/23 01:51:06;;;;;;;2.23;1.90;;;11.30;99.90;;;;;;5036823;28;20163;-74
2023/09/23 01:53:32;;;;;;;1.80;1.70;;;11.30;99.90;;;;;;5054793;28;20221;-74
2023/09/23 01:55:57;;;;;;;2.00;1.90;;;11.20;99.90;;;;;;5054513;28;20421;-74
2023/09/23 01:58:23;;;;;;;3.50;2.37;;;11.10;99.90;;;;;;5054410;28;20185;-74
2023/09/23 02:00:51;;;;;;;9.50;2.30;;;11.10;99.90;;;;;;5054372;28;20167;-74
2023/09/23 02:03:16;;;;;;;3.87;2.80;;;11.00;99.90;;;;;;5054302;28;20171;-74
2023/09/23 02:05:42;;;;;;;3.80;3.40;;;11.00;99.90;;;;;;5054026;28;20764;-74
2023/09/23 02:08:08;;;;;;;3.50;2.33;;;11.10;99.90;;;;;;5054389;28;20357;-74
2023/09/23 02:10:33;;;;;;;2.00;1.70;;;11.10;99.90;;;;;;5054476;28;20174;-74
2023/09/23 02:12:59;;;;;;;3.93;2.10;;;11.10;99.90;;;;;;5036556;28;20673;-74
2023/09/23 02:15:25;;;;;;;2.30;2.03;;;11.10;99.90;;;;;;5062058;28;20739;-74
2023/09/23 02:17:51;;;;;;;2.83;1.90;;;11.10;99.90;;;;;;5077833;28;20232;-74
2023/09/23 02:20:21;;;;;;;1.87;1.67;;;11.20;99.90;;;;;;5082345;28;20162;-74
2023/09/23 02:22:55;;;;;;;5.53;1.77;;;11.10;99.90;;;;;;5056008;28;20858;-74
2023/09/23 02:25:24;;;;;;;2.20;1.60;;;11.00;99.90;;;;;;5073519;28;20499;-74
2023/09/23 02:27:51;;;;;;;2.53;1.27;;;11.00;99.90;;;;;;5074177;28;20906;-74
2023/09/23 02:30:17;;;;;;;5.07;2.00;;;11.00;99.90;;;;;;5074010;28;20456;-74
2023/09/23 02:32:44;;;;;;;2.37;1.70;;;11.00;99.90;;;;;;5074040;28;20450;-74
2023/09/23 02:35:12;;;;;;;5.40;1.40;;;11.00;99.90;;;;;;5073703;28;20503;-74
2023/09/23 02:37:45;;;;;;;3.00;1.83;;;10.90;99.90;;;;;;5056064;28;20435;-74
2023/09/23 02:40:12;;;;;;;4.20;2.10;;;10.90;99.90;;;;;;5056275;28;20984;-74
2023/09/23 02:42:42;;;;;;;4.40;1.80;;;10.90;99.90;;;;;;5077757;28;20483;-74
2023/09/23 02:45:09;;;;;;;3.53;1.63;;;10.90;99.90;;;;;;5085040;28;20439;-74
2023/09/23 02:47:36;;;;;;;3.50;3.20;;;10.80;99.90;;;;;;5083459;28;20408;-74
2023/09/23 02:50:03;;;;;;;4.50;1.43;;;10.90;99.90;;;;;;5073612;28;20452;-74
2023/09/23 02:52:29;;;;;;;3.43;1.63;;;10.90;99.90;;;;;;5073573;28;20404;-74
2023/09/23 02:54:54;;;;;;;1.27;1.17;;;10.90;99.90;;;;;;5055196;28;20535;-74
2023/09/23 02:57:20;;;;;;;5.73;1.30;;;10.90;99.90;;;;;;5073466;28;20166;-74
2023/09/23 02:59:53;;;;;;;1.47;1.00;;;10.90;99.90;;;;;;5073519;28;20169;-75
2023/09/23 03:02:23;;;;;;;2.80;1.20;;;10.90;99.90;;;;;;5055889;28;20927;-74
2023/09/23 03:04:57;;;;;;;1.50;1.20;;;11.00;99.90;;;;;;5055149;28;20797;-73
2023/09/23 03:07:24;;;;;;;2.17;1.43;;;11.00;99.90;;;;;;5072837;28;20400;-73
2023/09/23 03:09:55;;;;;;;2.90;1.30;;;11.00;99.90;;;;;;5073197;28;20455;-74
2023/09/23 03:12:23;;;;;;;5.13;1.40;;;11.10;99.90;;;;;;5073084;28;20396;-74
2023/09/23 03:14:51;;;;;;;1.77;1.30;;;11.10;99.90;;;;;;5072920;28;20420;-73
2023/09/23 03:17:21;;;;;;;5.30;1.40;;;11.10;99.90;;;;;;5076815;28;20412;-73
2023/09/23 03:19:50;;;;;;;1.40;1.10;;;11.10;99.90;;;;;;5072845;28;20764;-74
2023/09/23 03:22:20;;;;;;;4.40;1.50;;;11.10;99.90;;;;;;5071757;28;20458;-74
2023/09/23 03:24:48;;;;;;;2.33;1.10;;;11.10;99.90;;;;;;5072710;28;20427;-74
2023/09/23 03:27:13;;;;;;;4.00;1.27;;;11.10;99.90;;;;;;5072985;28;20439;-74
2023/09/23 03:29:40;;;;;;;1.60;1.20;;;11.10;99.90;;;;;;5072761;28;20475;-74
2023/09/23 03:32:06;;;;;;;3.43;1.33;;;11.10;99.90;;;;;;5072800;28;20212;-74
2023/09/23 03:34:32;;;;;;;2.13;1.33;;;11.10;99.90;;;;;;5072548;28;20436;-73
2023/09/23 03:36:58;;;;;;;1.90;0.93;;;11.10;99.90;;;;;;5071800;28;20879;-74
2023/09/23 03:39:25;;;;;;;1.93;1.53;;;11.10;99.90;;;;;;5072295;28;20202;-74
2023/09/23 03:41:50;;;;;;;1.70;1.10;;;11.10;99.90;;;;;;5072396;28;20416;-73
2023/09/23 03:44:16;;;;;;;2.33;1.40;;;11.10;99.90;;;;;;5072520;28;20431;-73
2023/09/23 03:46:50;;;;;;;4.30;1.40;;;11.10;99.90;;;;;;5072465;28;20681;-73
2023/09/23 03:49:17;;;;;;;1.60;1.10;;;11.10;99.90;;;;;;5072453;28;20817;-73
2023/09/23 03:51:43;;;;;;;2.17;1.40;;;11.10;99.90;;;;;;5072450;28;20392;-74
2023/09/23 03:54:09;;;;;;;9.70;2.10;;;11.10;99.90;;;;;;5071804;28;20440;-74
2023/09/23 03:56:35;;;;;;;2.50;1.17;;;11.10;99.90;;;;;;5072165;28;20439;-74
2023/09/23 03:59:01;;;;;;;3.60;1.37;;;11.10;99.90;;;;;;5072334;28;20166;-74
2023/09/23 04:01:26;;;;;;;3.13;1.30;;;11.10;99.90;;;;;;5072358;28;20162;-73
2023/09/23 04:03:52;;;;;;;3.30;1.53;;;11.10;99.90;;;;;;5072257;28;20914;-74
2023/09/23 04:06:18;;;;;;;1.83;1.00;;;11.10;99.90;;;;;;5072120;28;20166;-73
2023/09/23 04:08:44;;;;;;;4.13;2.50;;;11.10;99.90;;;;;;5054267;28;20277;-74
2023/09/23 04:11:10;;;;;;;3.70;1.73;;;11.10;99.90;;;;;;5071924;28;20560;-73
2023/09/23 04:13:36;;;;;;;4.67;1.03;;;11.10;99.90;;;;;;5071999;28;20166;-73
2023/09/23 04:16:02;;;;;;;5.30;1.23;;;11.10;99.90;;;;;;5058002;28;20471;-74
2023/09/23 04:18:31;;;;;;;2.60;1.17;;;11.10;99.90;;;;;;5089326;28;20445;-73
2023/09/23 04:20:58;;;;;;;9.63;1.60;;;11.10;99.90;;;;;;5087755;28;20405;-74
2023/09/23 04:23:23;;;;;;;2.90;1.43;;;11.10;99.90;;;;;;5072067;28;20396;-74
2023/09/23 04:25:50;;;;;;;1.93;1.33;;;11.10;99.90;;;;;;5071756;28;20428;-73
2023/09/23 04:28:16;;;;;;;1.17;1.07;;;11.00;99.90;;;;;;5071793;28;20190;-74
2023/09/23 04:30:42;;;;;;;1.73;1.60;;;11.00;99.90;;;;;;5071748;28;20780;-73
2023/09/23 04:33:07;;;;;;;3.93;0.93;;;11.00;99.90;;;;;;5053860;28;20415;-73
2023/09/23 04:35:34;;;;;;;1.70;1.13;;;11.00;99.90;;;;;;5071508;28;20679;-74
2023/09/23 04:38:01;;;;;;;1.33;0.97;;;11.00;99.90;;;;;;5071786;28;20652;-73
2023/09/23 04:40:26;;;;;;;1.63;1.30;;;11.00;99.90;;;;;;5071187;28;20412;-73
2023/09/23 04:42:52;;;;;;;4.60;2.50;;;11.00;99.90;;;;;;5071750;28;20400;-74
2023/09/23 04:45:20;;;;;;;4.73;2.30;;;11.00;99.90;;;;;;5071109;28;20189;-74
2023/09/23 04:47:50;;;;;;;5.03;1.60;;;10.90;99.90;;;;;;5053483;28;20170;-74
2023/09/23 04:50:23;;;;;;;2.27;1.17;;;11.00;99.90;;;;;;5071700;28;20455;-74
2023/09/23 04:52:50;;;;;;;4.13;1.03;;;11.00;99.90;;;;;;5071907;28;20930;-74
2023/09/23 04:55:16;;;;;;;1.67;1.20;;;11.00;99.90;;;;;;5071246;28;20444;-73
2023/09/23 04:57:41;;;;;;;2.10;1.63;;;11.00;99.90;;;;;;5071792;28;20435;-74
2023/09/23 05:00:09;;;;;;;1.20;1.00;;;11.00;99.90;;;;;;5071772;28;20408;-73
2023/09/23 05:02:36;;;;;;;4.50;1.33;;;11.00;99.90;;;;;;5071601;28;20598;-74
2023/09/23 05:05:03;;;;;;;2.60;1.30;;;11.00;99.90;;;;;;5071163;28;20420;-73
2023/09/23 05:07:28;;;;;;;4.30;1.60;;;11.00;99.90;;;;;;5071334;28;20436;-73
2023/09/23 05:09:55;;;;;;;4.43;2.63;;;11.00;99.90;;;;;;5071110;28;20451;-73
2023/09/23 05:12:21;;;;;;;1.87;1.67;;;11.00;99.90;;;;;;5071577;28;20583;-73
2023/09/23 05:14:47;;;;;;;6.27;1.53;;;11.00;99.90;;;;;;5071210;28;20456;-74
2023/09/23 05:17:15;;;;;;;6.03;1.53;;;11.00;99.90;;;;;;5083041;28;20502;-74
2023/09/23 05:19:42;;;;;;;2.40;1.37;;;11.00;99.90;;;;;;5091344;28;20450;-73
2023/09/23 05:22:08;;;;;;;2.37;1.30;;;11.00;99.90;;;;;;5077637;28;20412;-75
2023/09/23 05:24:34;;;;;;;1.80;1.70;;;11.00;99.90;;;;;;5071151;28;20515;-72
2023/09/23 05:27:00;;;;;;;3.33;1.70;;;11.00;99.90;;;;;;5053217;28;20451;-73
2023/09/23 05:29:26;;;;;;;3.73;1.60;;;11.10;99.90;;;;;;5053290;28;20492;-73
2023/09/23 05:31:52;;;;;;;1.90;1.70;;;11.10;99.90;;;;;;5071197;28;20169;-73
2023/09/23 05:34:20;;;;;;;4.53;1.90;;;11.10;99.90;;;;;;5071132;28;20499;-73
2023/09/23 05:36:46;;;;;;;1.53;1.40;;;11.10;99.90;;;;;;5053103;28;20253;-74
2023/09/23 05:39:18;;;;;;;1.40;1.30;;;11.10;99.90;;;;;;5078216;28;20511;-73
2023/09/23 05:41:44;;;;;;;3.60;1.20;;;11.10;99.90;;;;;;5087744;28;20214;-73
2023/09/23 05:44:12;;;;;;;5.47;1.93;;;11.10;99.90;;;;;;5078954;28;20435;-73
2023/09/23 05:46:38;;;;;;;1.17;1.07;;;11.10;99.90;;;;;;5090890;28;20419;-73
2023/09/23 05:49:05;;;;;;;3.00;1.50;;;11.10;99.90;;;;;;5086186;28;20878;-73
2023/09/23 05:51:33;;;;;;;1.33;1.23;;;11.10;99.90;;;;;;5053061;28;20775;-75
2023/09/23 05:53:59;;;;;;;3.50;1.37;;;11.10;99.90;;;;;;5072467;28;20934;-73
2023/09/23 05:56:25;;;;;;;1.67;1.43;;;11.20;99.90;;;;;;5078370;28;20435;-73
2023/09/23 05:58:50;;;;;;;2.97;1.60;;;11.20;99.90;;;;;;5073608;28;21090;-73
2023/09/23 06:01:16;;;;;;;3.43;1.50;;;11.30;99.90;;;;;;5094731;28;20276;-73
2023/09/23 06:03:41;;;;;;;2.70;1.70;;;11.40;99.90;;;;;;5076412;28;20181;-72
2023/09/23 06:06:08;;;;;;;3.50;1.30;;;11.50;99.90;;;;;;5074238;28;20652;-72
2023/09/23 06:08:33;;;;;;;1.80;1.00;;;11.50;99.90;;;;;;5083172;28;20176;-72
2023/09/23 06:11:04;;;;;;;8.53;1.50;;;11.60;99.90;;;;;;5060956;28;20777;-73
2023/09/23 06:13:30;;;;;;;5.73;1.50;;;11.70;99.90;;;;;;5078333;28;20635;-73
2023/09/23 06:16:01;;;;;;;3.17;1.90;;;11.70;99.90;;;;;;5076741;28;20495;-73
2023/09/23 06:18:27;;;;;;;5.80;1.50;;;11.70;99.90;;;;;;5094495;28;20761;-73
2023/09/23 06:21:01;;;;;;;4.43;1.63;;;11.80;99.90;;;;;;5074877;28;20415;-73
2023/09/23 06:23:27;;;;;;;3.43;1.77;;;11.80;99.90;;;;;;5084108;28;20194;-73
2023/09/23 06:25:57;;;;;;;2.80;2.23;;;11.90;99.90;;;;;;5082127;28;20467;-73
2023/09/23 06:28:23;;;;;;;1.90;1.33;;;12.00;99.90;;;;;;5074010;28;20158;-73
2023/09/23 06:30:50;;;;;;;4.80;1.60;;;12.00;99.90;;;;;;5082596;28;20477;-73
2023/09/23 06:33:15;;;;;;;1.60;1.47;;;12.10;99.90;;;;;;5074116;28;20758;-74
2023/09/23 06:35:41;;;;;;;15.23;1.90;;;12.20;99.90;;;;;;5073695;28;20424;-73
2023/09/23 06:38:06;;;;;;;3.13;1.27;;;12.30;99.90;;;;;;5074291;28;20155;-73
2023/09/23 06:40:32;;;;;;;6.10;2.30;;;12.30;99.90;;;;;;5073927;28;20174;-73
2023/09/23 06:42:58;;;;;;;3.33;1.67;;;12.40;99.90;;;;;;5073866;28;20568;-74
2023/09/23 06:45:24;;;;;;;4.80;1.90;;;12.50;99.90;;;;;;5073559;28;20723;-73
2023/09/23 06:47:49;;;;;;;2.40;1.40;;;12.60;99.90;;;;;;5073929;28;20194;-73
2023/09/23 06:50:16;;;;;;;1.63;1.37;;;12.70;99.90;;;;;;5073701;28;20494;-73
2023/09/23 06:52:42;;;;;;;1.73;1.30;;;12.70;99.90;;;;;;5073781;28;20503;-73
2023/09/23 06:55:08;;;;;;;1.57;1.47;;;12.80;99.90;;;;;;5073351;28;20946;-73
2023/09/23 06:57:35;;;;;;;2.60;1.30;;;12.90;99.90;;;;;;5073470;28;20408;-74
2023/09/23 07:00:01;;;;;;;3.23;1.67;;;13.10;99.90;;;;;;5073607;28;20546;-73
2023/09/23 07:02:27;;;;;;;2.07;1.57;;;13.20;99.90;;;;;;5073591;28;20400;-73
2023/09/23 07:04:52;;;;;;;18.00;8.43;;;13.20;99.90;;;;;;5079832;28;20522;-74
2023/09/23 07:07:18;;;;;;;2.70;1.90;;;13.40;99.90;;;;;;5075909;28;20204;-74
2023/09/23 07:09:44;;;;;;;5.50;1.33;;;13.50;99.90;;;;;;5074362;28;20229;-73
2023/09/23 07:12:12;;;;;;;1.63;1.30;;;13.50;99.90;;;;;;5073076;28;20178;-74
2023/09/23 07:14:39;;;;;;;3.60;1.50;;;13.60;99.90;;;;;;5073076;28;20178;-73
2023/09/23 07:17:06;;;;;;;5.03;1.60;;;13.70;99.90;;;;;;5077841;28;20423;-74
2023/09/23 07:19:32;;;;;;;1.37;1.10;;;13.80;99.90;;;;;;5085513;28;20411;-73
2023/09/23 07:21:58;;;;;;;3.97;1.33;;;13.90;99.90;;;;;;5075475;28;20439;-73
2023/09/23 07:24:26;;;;;;;2.60;1.43;;;14.00;99.90;;;;;;5060420;28;21007;-73
2023/09/23 07:26:54;;;;;;;3.27;1.23;;;14.20;99.90;;;;;;5080839;28;20403;-73
2023/09/23 07:29:19;;;;;;;1.50;1.40;;;14.50;99.90;;;;;;5072919;28;20475;-73
2023/09/23 07:31:45;;;;;;;2.37;1.67;;;14.50;99.90;;;;;;5055019;28;21045;-73
2023/09/23 07:34:11;;;;;;;3.50;1.37;;;14.50;99.90;;;;;;5072734;28;20182;-74
2023/09/23 07:36:37;;;;;;;2.60;1.60;;;14.60;99.90;;;;;;5054702;28;20201;-74
2023/09/23 07:39:03;;;;;;;2.20;1.47;;;14.70;99.90;;;;;;5072837;28;20440;-74
2023/09/23 07:41:28;;;;;;;5.13;1.40;;;14.70;99.90;;;;;;5072804;28;20163;-72
2023/09/23 07:43:54;;;;;;;5.03;1.47;;;15.00;99.90;;;;;;5074774;28;20213;-71
2023/09/23 07:46:20;;;;;;;1.33;1.10;;;15.30;99.90;;;;;;5087587;28;20173;-72
2023/09/23 07:48:46;;;;;;;2.30;1.20;;;15.30;99.90;;;;;;5080622;28;20712;-73
2023/09/23 07:51:12;;;;;;;1.83;1.30;;;15.40;99.90;;;;;;5080744;28;20488;-73
2023/09/23 07:53:38;;;;;;;4.87;2.03;;;15.60;99.90;;;;;;5075588;28;20594;-73
2023/09/23 07:56:04;;;;;;;2.23;1.43;;;15.80;99.90;;;;;;5075539;28;20193;-71
2023/09/23 07:58:29;;;;;;;3.20;1.10;;;16.00;99.90;;;;;;5073147;28;20409;-71
2023/09/23 08:00:55;;;;;;;3.47;1.20;;;16.00;99.90;;;;;;5072185;28;20458;-72
2023/09/23 08:03:20;;;;;;;3.10;1.40;;;16.20;99.90;;;;;;5072288;28;20586;-72
2023/09/23 08:05:46;;;;;;;1.40;1.10;;;16.40;99.90;;;;;;5071082;28;20189;-72
2023/09/23 08:08:12;;;;;;;2.97;1.13;;;16.80;99.90;;;;;;5071659;28;20181;-71
2023/09/23 08:10:37;;;;;;;1.47;1.13;;;17.30;99.90;;;;;;5071561;28;20340;-71
2023/09/23 08:13:03;;;;;;;2.83;1.23;;;17.90;99.90;;;;;;5072623;28;20185;-72
2023/09/23 08:15:28;;;;;;;3.93;1.53;;;18.60;99.90;;;;;;5064948;28;20181;-72
2023/09/23 08:17:54;;;;;;;1.70;1.30;;;19.10;99.90;;;;;;5082106;28;20705;-71
2023/09/23 08:20:22;;;;;;;3.13;1.33;;;19.80;99.90;;;;;;5092102;28;20172;-71
2023/09/23 08:22:48;;;;;;;1.77;1.00;;;20.80;99.90;;;;;;5090582;28;20169;-72
2023/09/23 08:25:15;;;;;;;2.20;1.50;;;22.60;99.90;;;;;;5071949;28;20486;-72
2023/09/23 08:27:41;;;;;;;2.30;1.10;;;25.10;99.90;;;;;;5078479;28;20416;-73
2023/09/23 08:30:08;;;;;;;2.13;1.30;;;27.30;78.10;;;;;;5079782;28;20539;-73
2023/09/23 08:32:33;;;;;;;2.30;2.10;;;29.00;59.30;;;;;;5072061;28;20417;-73
2023/09/23 08:34:59;;;;;;;2.10;1.20;;;30.40;54.10;;;;;;5071813;28;20451;-73
2023/09/23 08:37:25;;;;;;;1.40;1.00;;;32.30;50.70;;;;;;5054376;28;20170;-73
2023/09/23 08:39:50;;;;;;;2.33;1.67;;;34.20;45.30;;;;;;5073737;28;20231;-72
2023/09/23 08:42:17;;;;;;;1.63;1.47;;;33.90;38.60;;;;;;5071836;28;20166;-73
2023/09/23 08:44:43;;;;;;;2.73;1.77;;;32.90;38.50;;;;;;5070788;28;20186;-72
2023/09/23 08:47:09;;;;;;;1.37;1.07;;;32.90;39.50;;;;;;5071695;28;20401;-72
2023/09/23 08:49:36;;;;;;;1.97;1.43;;;33.10;37.90;;;;;;5071861;28;20198;-74
2023/09/23 08:52:03;;;;;;;2.50;1.10;;;32.90;38.10;;;;;;5071820;28;20399;-73
2023/09/23 08:54:28;;;;;;;1.97;1.33;;;32.60;36.90;;;;;;5071490;28;20931;-72
2023/09/23 08:56:54;;;;;;;3.77;1.50;;;32.70;37.70;;;;;;5071597;28;20437;-72
2023/09/23 08:59:20;;;;;;;1.97;1.20;;;34.40;39.30;;;;;;5071718;28;20185;-73
2023/09/23 09:01:46;;;;;;;1.83;1.30;;;36.30;37.90;;;;;;5088996;28;20651;-73
2023/09/23 09:04:17;;;;;;;4.40;1.50;;;37.30;34.50;;;;;;5091604;28;20605;-73
2023/09/23 09:07:00;;;;;;;2.30;1.37;;;38.50;34.30;;;;;;5089750;28;20181;-73
2023/09/23 09:09:26;;;;;;;1.80;1.53;;;38.30;30.90;;;;;;5079810;28;20790;-72
2023/09/23 09:11:58;;;;;;;1.60;1.40;;;37.70;30.90;;;;;;5071592;28;20411;-72
2023/09/23 09:14:24;;;;;;;3.70;1.60;;;36.80;29.80;;;;;;5078455;28;20185;-73
2023/09/23 09:16:51;;;;;;;2.57;1.67;;;36.50;30.00;;;;;;5062272;28;20460;-73
2023/09/23 09:19:16;;;;;;;3.27;1.50;;;36.10;30.30;;;;;;5080645;28;20415;-73
2023/09/23 09:21:42;;;;;;;1.83;1.33;;;35.30;30.50;;;;;;5083207;28;20412;-73
2023/09/23 09:24:09;;;;;;;2.57;1.43;;;32.50;30.80;;;;;;5083499;28;20672;-71
2023/09/23 09:26:40;;;;;;;1.50;1.40;;;30.30;32.80;;;;;;5073396;28;20184;-72
2023/09/23 09:29:06;;;;;;;3.10;1.60;;;28.20;35.00;;;;;;5091598;28;20470;-72
2023/09/23 09:31:34;;;;;;;2.10;1.50;;;27.10;38.10;;;;;;5091545;28;20922;-72
2023/09/23 09:34:05;;;;;;;1.83;1.20;;;27.30;40.90;;;;;;5073787;28;20430;-73
2023/09/23 09:36:34;;;;;;;7.90;1.30;;;29.50;42.30;;;;;;5094983;28;20404;-73
2023/09/23 09:39:03;;;;;;;1.93;1.17;;;31.30;40.10;;;;;;5075961;28;20411;-72
2023/09/23 09:41:51;;;;;;;1.50;1.40;;;31.20;37.30;;;;;;5075128;28;20469;-71
2023/09/23 09:44:20;;;;;;;1.87;1.43;;;30.90;36.80;;;;;;5056972;28;20486;-71
2023/09/23 09:46:48;;;;;;;1.97;1.37;;;30.10;37.10;;;;;;5074748;28;20408;-71
2023/09/23 09:49:17;;;;;;;2.83;1.67;;;29.10;37.20;;;;;;5081505;28;20485;-71
2023/09/23 09:51:48;;;;;;;1.50;1.23;;;29.20;38.60;;;;;;5078154;28;20404;-71
2023/09/23 09:54:18;;;;;;;1.40;1.30;;;31.10;40.20;;;;;;5074582;28;20494;-72
2023/09/23 09:56:48;;;;;;;1.90;1.23;;;33.40;37.90;;;;;;5075076;28;20507;-72
2023/09/23 09:59:26;;;;;;;1.77;1.37;;;35.70;36.20;;;;;;5075231;28;20799;-72
2023/09/23 10:01:56;;;;;;;2.13;1.20;;;37.20;33.60;;;;;;5072032;28;20442;-73
2023/09/23 10:04:22;;;;;;;1.57;1.47;;;39.00;32.20;;;;;;5079797;28;20419;-73
2023/09/23 10:06:55;;;;;;;3.43;1.43;;;38.90;28.70;;;;;;5085524;28;20936;-72
2023/09/23 10:09:27;;;;;;;2.37;1.43;;;37.80;27.80;;;;;;5074557;28;20197;-74
2023/09/23 10:11:54;;;;;;;2.33;1.50;;;36.40;28.10;;;;;;5074572;28;20427;-72
2023/09/23 10:14:20;;;;;;;1.77;1.23;;;35.50;28.90;;;;;;5056486;28;20436;-74
2023/09/23 10:16:50;;;;;;;1.37;1.23;;;36.00;30.30;;;;;;5080308;28;20428;-72
2023/09/23 10:19:16;;;;;;;4.53;1.70;;;37.20;30.10;;;;;;5070892;28;20261;-72
2023/09/23 10:21:44;;;;;;;3.30;1.53;;;37.70;29.40;;;;;;5086468;28;20495;-72
2023/09/23 10:24:18;;;;;;;4.03;1.57;;;38.70;29.40;;;;;;5074178;28;20186;-72
2023/09/23 10:26:45;;;;;;;2.20;1.50;;;38.90;28.70;;;;;;5074153;28;20408;-72
2023/09/23 10:29:11;;;;;;;1.70;1.20;;;38.40;27.90;;;;;;5075736;28;20451;-72
2023/09/23 10:31:37;;;;;;;1.47;1.07;;;37.70;27.50;;;;;;5082457;28;20405;-73
2023/09/23 10:34:10;;;;;;;1.67;1.33;;;37.30;27.50;;;;;;5073969;28;20162;-72
2023/09/23 10:36:36;;;;;;;2.70;1.57;;;36.90;27.20;;;;;;5073805;28;20190;-72
2023/09/23 10:39:09;;;;;;;1.80;1.20;;;35.50;27.60;;;;;;5074043;28;20411;-72
2023/09/23 10:41:35;;;;;;;1.57;1.37;;;35.00;28.60;;;;;;5073982;28;20446;-72
2023/09/23 10:44:02;;;;;;;2.50;1.50;;;35.60;29.30;;;;;;5073689;28;20408;-71
2023/09/23 10:46:29;;;;;;;2.93;1.20;;;35.70;28.70;;;;;;5073405;28;20396;-71
2023/09/23 10:48:54;;;;;;;1.57;1.13;;;35.60;28.70;;;;;;5073792;28;20451;-72
2023/09/23 10:51:21;;;;;;;3.70;1.37;;;36.50;29.40;;;;;;5074710;28;20419;-68
2023/09/23 10:53:49;;;;;;;1.40;1.30;;;36.90;28.40;;;;;;5074155;28;20190;-69
2023/09/23 10:56:15;;;;;;;1.70;1.43;;;36.50;28.00;;;;;;5073178;28;20463;-68
2023/09/23 10:58:41;;;;;;;1.83;1.40;;;37.00;28.50;;;;;;5076550;28;20420;-67
2023/09/23 11:01:07;;;;;;;2.33;1.30;;;38.10;28.70;;;;;;5073384;28;20191;-67
2023/09/23 11:03:39;;;;;;;1.63;1.53;;;38.00;27.00;;;;;;5073662;28;20504;-69
2023/09/23 11:06:06;;;;;;;2.90;1.60;;;37.50;26.60;;;;;;5073160;28;20825;-69
2023/09/23 11:08:32;;;;;;;3.40;1.70;;;37.30;27.30;;;;;;5073495;28;20920;-67
2023/09/23 11:10:58;;;;;;;6.40;1.30;;;37.60;27.30;;;;;;5073312;28;20404;-69
2023/09/23 11:13:25;;;;;;;2.10;1.40;;;38.50;27.50;;;;;;5073264;28;20236;-65
2023/09/23 11:15:51;;;;;;;2.30;1.50;;;37.50;26.20;;;;;;5073167;28;20186;-68
2023/09/23 11:18:17;;;;;;;2.57;1.60;;;35.70;26.80;;;;;;5076607;28;20408;-68
2023/09/23 11:20:47;;;;;;;1.83;0.97;;;34.40;27.50;;;;;;5072631;28;20188;-68
2023/09/23 11:23:14;;;;;;;2.80;1.70;;;34.00;28.30;;;;;;5075589;28;20463;-68
2023/09/23 11:25:46;;;;;;;2.77;1.70;;;32.20;28.50;;;;;;5072599;28;20523;-68
2023/09/23 11:28:20;;;;;;;2.60;2.00;;;30.70;29.70;;;;;;5072963;28;20934;-68
2023/09/23 11:30:46;;;;;;;1.80;1.50;;;31.10;32.30;;;;;;5072796;28;20487;-69
2023/09/23 11:33:12;;;;;;;2.40;1.57;;;32.20;32.60;;;;;;5064459;28;20961;-70
2023/09/23 11:35:38;;;;;;;1.87;1.70;;;33.10;31.80;;;;;;5072288;28;20428;-66
2023/09/23 11:38:03;;;;;;;2.00;1.63;;;34.10;30.80;;;;;;5072585;28;20655;-69
2023/09/23 11:40:30;;;;;;;1.77;1.67;;;35.10;30.30;;;;;;5064397;28;20408;-73
2023/09/23 11:42:56;;;;;;;2.97;2.13;;;36.00;29.60;;;;;;5072867;28;20664;-72
2023/09/23 11:45:22;;;;;;;3.87;2.00;;;35.90;28.40;;;;;;5072137;28;20505;-72
2023/09/23 11:47:48;;;;;;;2.23;1.73;;;36.20;28.10;;;;;;5054586;28;20185;-72
2023/09/23 11:50:15;;;;;;;2.33;2.13;;;36.00;28.00;;;;;;5054459;28;20475;-73
2023/09/23 11:52:40;;;;;;;2.50;2.30;;;35.00;27.80;;;;;;5072501;28;20772;-72
2023/09/23 11:55:06;;;;;;;2.10;2.00;;;34.30;28.20;;;;;;5071906;28;20456;-73
2023/09/23 11:57:31;;;;;;;2.07;1.93;;;34.20;29.50;;;;;;5073501;28;20171;-73
2023/09/23 11:59:57;;;;;;;2.43;2.17;;;35.20;30.20;;;;;;5074265;28;20257;-73
2023/09/23 12:02:23;;;;;;;2.47;2.27;;;35.10;29.20;;;;;;5072969;28;20248;-73
2023/09/23 12:04:48;;;;;;;3.07;2.63;;;34.80;28.80;;;;;;5077307;28;20238;-72
2023/09/23 12:07:16;;;;;;;2.90;2.67;;;36.40;29.90;;;;;;5072130;28;20228;-73
2023/09/23 12:09:43;;;;;;;3.30;2.30;;;36.90;28.40;;;;;;5072183;28;20194;-73
2023/09/23 12:12:12;;;;;;;2.73;2.53;;;36.20;27.80;;;;;;5071950;28;20483;-72
2023/09/23 12:14:40;;;;;;;3.10;2.70;;;36.10;27.70;;;;;;5053916;28;20436;-72
2023/09/23 12:17:06;;;;;;;3.97;2.70;;;34.70;28.20;;;;;;5075049;28;20420;-73
2023/09/23 12:19:32;;;;;;;3.10;2.90;;;33.70;28.70;;;;;;5071960;28;20751;-72
2023/09/23 12:21:58;;;;;;;2.90;2.70;;;34.00;29.60;;;;;;5071827;28;20937;-74
2023/09/23 12:24:23;;;;;;;2.43;2.23;;;35.70;30.00;;;;;;5071818;28;20483;-71
2023/09/23 12:26:49;;;;;;;2.80;2.50;;;36.50;28.70;;;;;;5071707;28;20215;-72
2023/09/23 12:29:14;;;;;;;2.47;2.30;;;37.10;28.00;;;;;;5066876;28;20604;-73
2023/09/23 12:31:40;;;;;;;2.57;2.37;;;36.40;27.30;;;;;;5071950;28;20166;-71
2023/09/23 12:34:05;;;;;;;3.60;2.60;;;37.60;27.70;;;;;;5071519;28;20177;-72
2023/09/23 12:36:31;;;;;;;2.30;2.20;;;37.50;27.10;;;;;;5085721;28;20176;-72
2023/09/23 12:38:57;;;;;;;2.57;2.37;;;36.90;27.70;;;;;;5074375;28;20170;-72
2023/09/23 12:41:22;;;;;;;2.50;2.30;;;35.70;27.40;;;;;;5071946;28;20221;-71
2023/09/23 12:43:48;;;;;;;2.77;2.47;;;35.40;28.50;;;;;;5071725;28;20170;-72
2023/09/23 12:46:13;;;;;;;1.90;1.80;;;36.50;29.40;;;;;;5071723;28;20229;-75